Pagrindinis puslapis
METAR-TAF:

METAR-TAF

Oro uostai :

El-Tor, Egiptas

platuma: 28-14N, ilguma: 032-37E, Aukštis: 21 m

Dabartinis oras

Ataskaita buvo paskelbta 31 minutes, ne 00:00 UTC
Vėjas 3 kt iš Šiaurės/Šiaurės Vakarų
Temperatūra 14°C
Drėgmė 38%
Slėgis 1011 hPa
Matomumas 10 km arba daugiau
nėra debesų žemiau 1500 m ir nėra kamuolinių lietaus debesų

METAR: HETR 270000Z 34003KT CAVOK 14/00 Q1011

Laikas: 02:31 (00:31 UTC)

Prognozė

Ataskaita buvo paskelbta 1 valandą ir 31 minutes, ne 23:00 UTC
Prognozė galioja nuo 27 metu 00 UTC su 28 metu 06 UTC
Vėjas 10 kt iš Pietvakarių
Matomumas 10 km arba daugiau
nėra debesų žemiau 1500 m ir nėra kamuolinių lietaus debesų
Laikinai
nuo 27 metu 03 UTC su 27 metu 12 UTC
Vėjas 18 kt iš Šiaurės Vakarų su gūsio iki 30 kt
Matomumas: 3000 m
Smėlis,

TAF: HETR 262300Z 2700/2806 23010KT CAVOK TEMPO 2703/2712 31018G30KT 3000 SA NSC

Orai ataskaitas ir orų prognozės (METAR, TAF).

turimą stotys yra geltonos ir raudonos taškus žemėlapyje.

Perkelti pele per norėdami pamatyti stoties vardą.

Tada spustelėkite, norėdami matyti oro stebėjimo ir prognozės.

Norėdami pakeisti žemėlapį: spustelėkite ant žalios mygtukų su juodo kryžiaus žemyn,; žalią mygtuką su brūkšneliu, jei norite nutolinti; arba žalių rodyklių gretimoms žemėlapius.


METAR-TAF: